Terminal Aerodrome Forecast
Issued by NWS

Home | Current Version | Previous Version | Graphics & Text | Print | Product List | Glossary On
Versions: 1 2 3 4 5 6 7 8 9 10 11 12 13 14 15
142
FTUS43 KFGF 240520
TAFBJI
TAF
KBJI 240520Z 2406/2506 09010KT P6SM OVC012
     FM241400 11011KT P6SM BKN015 OVC025
     FM242100 12012G20KT 5SM -RA BR OVC015=

USA.gov is the U.S. government's official web portal to all federal, state and local government web resources and services.